Monett, MO

9:12 AM CST on November 17, 2019 (GMT -0600)
Monett

Weather History for KHFJ - October, 2019

Change the Weather History Date:

Tuesday, October 22, 2019

  Actual Average (WUND) Record (WUND)
Temperature  
Mean Temperature 50 °F -  
Max Temperature 60 °F - - (-1)
Min Temperature 41 °F - - (-1)
Degree Days  
Heating Degree Days 14    
Moisture  
Dew Point 33 °F    
Average Humidity 54    
Maximum Humidity 71    
Minimum Humidity 34    
Precipitation  
Precipitation 0.00 in - - ()
Sea Level Pressure  
Sea Level Pressure 30.04 in    
Wind  
Wind Speed 10 mph ()    
Max Wind Speed 21 mph    
Max Gust Speed 30 mph    
Visibility 10.0 miles    
Events      
Averages and records for this station are not official NWS values.
T = Trace of Precipitation, MM = Missing Value Source: Averaged Metar Reports

Daily Weather History Graph

Daily Weather History Graph

Search for Another Location

Airport or City:

Astronomy

Oct. 22, 2019 Rise Set
Actual Time 7:29 AM CDT 6:30 PM CDT
Civil Twilight 7:03 AM CDT 6:56 PM CDT
Nautical Twilight 6:33 AM CDT 7:27 PM CDT
Astronomical Twilight 6:03 AM CDT 7:57 PM CDT
Moon 12:52 AM CDT (10/22) 3:29 PM CDT (10/22)
Length of Visible Light 11h 53m
Length of Day
11h 00m
Last Quarter, 37% of the Moon is Illuminated
Oct 22
Last Quarter
Oct 27
New
Nov 4
First Quarter
Nov 12
Full
Nov 19
Last Quarter

Hourly Weather History & Observations

Time (CDT) Temp. Windchill Dew Point Humidity Pressure Visibility Wind Dir Wind Speed Gust Speed Precip Events Conditions
12:15 AM 48.2 °F - 33.8 °F 58% 29.95 in 10.0 mi West 12.7 mph - N/A   Clear
12:35 AM 48.2 °F - 33.8 °F 58% 29.95 in 10.0 mi West 10.4 mph 18.4 mph N/A   Clear
12:55 AM 46.4 °F 42.4 °F 33.8 °F 62% 29.96 in 10.0 mi West 8.1 mph - N/A   Clear
1:15 AM 46.4 °F 41.5 °F 33.8 °F 62% 29.96 in 10.0 mi West 10.4 mph 17.3 mph N/A   Clear
1:35 AM 46.4 °F 42.4 °F 35.6 °F 66% 29.96 in 10.0 mi West 8.1 mph - N/A   Clear
1:55 AM 44.6 °F 40.2 °F 35.6 °F 71% 29.96 in 10.0 mi West 8.1 mph - N/A   Clear
2:15 AM 44.6 °F 40.2 °F 35.6 °F 71% 29.96 in 10.0 mi West 8.1 mph - N/A   Clear
2:35 AM 44.6 °F 38.8 °F 33.8 °F 66% 29.97 in 10.0 mi West 11.5 mph - N/A   Clear
2:55 AM 44.6 °F 38.8 °F 33.8 °F 66% 29.98 in 10.0 mi West 11.5 mph - N/A   Clear
3:15 AM 44.6 °F 39.7 °F 33.8 °F 66% 29.99 in 10.0 mi West 9.2 mph - N/A   Clear
3:35 AM 44.6 °F 39.2 °F 33.8 °F 66% 29.99 in 10.0 mi West 10.4 mph - N/A   Clear
3:55 AM 44.6 °F 38.8 °F 33.8 °F 66% 29.99 in 10.0 mi West 11.5 mph - N/A   Clear
4:15 AM 44.6 °F 40.2 °F 33.8 °F 66% 29.99 in 10.0 mi West 8.1 mph - N/A   Clear
4:35 AM 42.8 °F 37.5 °F 33.8 °F 70% 29.99 in 10.0 mi West 9.2 mph - N/A   Clear
4:55 AM 42.8 °F 37.5 °F 33.8 °F 70% 29.99 in 10.0 mi West 9.2 mph - N/A   Clear
5:15 AM 42.8 °F 37.0 °F 32.0 °F 66% 29.99 in 10.0 mi West 10.4 mph 16.1 mph N/A   Clear
5:35 AM 42.8 °F 37.5 °F 32.0 °F 66% 30.00 in 10.0 mi West 9.2 mph - N/A   Clear
5:55 AM 42.8 °F 37.0 °F 32.0 °F 66% 30.01 in 10.0 mi West 10.4 mph - N/A   Clear
6:15 AM 42.8 °F 36.6 °F 32.0 °F 66% 30.02 in 10.0 mi West 11.5 mph - N/A   Clear
6:35 AM 41.0 °F 34.7 °F 32.0 °F 70% 30.03 in 10.0 mi West 10.4 mph - N/A   Clear
6:55 AM 41.0 °F 34.7 °F 32.0 °F 70% 30.04 in 10.0 mi West 10.4 mph - N/A   Clear
7:15 AM 41.0 °F 35.2 °F 32.0 °F 70% 30.04 in 10.0 mi West 9.2 mph - N/A   Clear
7:55 AM 41.0 °F 36.4 °F 32.0 °F 70% 30.05 in - West 6.9 mph - N/A   Unknown
8:15 AM 41.0 °F 35.2 °F 32.0 °F 70% 30.06 in 10.0 mi West 9.2 mph - N/A   Clear
8:35 AM 42.8 °F 38.6 °F 32.0 °F 66% 30.07 in 10.0 mi West 6.9 mph - N/A   Clear
8:55 AM 44.6 °F 39.7 °F 32.0 °F 61% 30.08 in 10.0 mi West 9.2 mph - N/A   Clear
9:15 AM 44.6 °F 38.4 °F 32.0 °F 61% 30.09 in 10.0 mi West 12.7 mph 17.3 mph N/A   Clear
9:35 AM 46.4 °F 40.7 °F 32.0 °F 57% 30.10 in 10.0 mi West 12.7 mph - N/A   Clear
10:15 AM 50.0 °F - 32.0 °F 50% 30.09 in 10.0 mi WNW 12.7 mph 20.7 mph N/A   Clear
10:55 AM 53.6 °F - 32.0 °F 44% 30.09 in 10.0 mi West 15.0 mph 19.6 mph N/A   Clear
11:15 AM 53.6 °F - 32.0 °F 44% 30.10 in 10.0 mi West 17.3 mph 23.0 mph N/A   Clear
11:35 AM 55.4 °F - 32.0 °F 41% 30.10 in 10.0 mi West 18.4 mph 26.5 mph N/A   Clear
11:55 AM 55.4 °F - 32.0 °F 41% 30.10 in 10.0 mi West 19.6 mph - N/A   Clear
12:15 PM 55.4 °F - 32.0 °F 41% 30.10 in 10.0 mi WNW 18.4 mph 26.5 mph N/A   Clear
12:35 PM 57.2 °F - 32.0 °F 38% 30.09 in 10.0 mi West 15.0 mph 26.5 mph N/A   Clear
12:55 PM 59.0 °F - 32.0 °F 36% 30.09 in 10.0 mi West 16.1 mph 25.3 mph N/A   Clear
1:15 PM 59.0 °F - 32.0 °F 36% 30.08 in 10.0 mi West 20.7 mph 29.9 mph N/A   Clear
1:35 PM 59.0 °F - 32.0 °F 36% 30.08 in 10.0 mi West 15.0 mph 25.3 mph N/A   Clear
1:55 PM 59.0 °F - 32.0 °F 36% 30.07 in 10.0 mi West 15.0 mph 24.2 mph N/A   Clear
2:15 PM 59.0 °F - 32.0 °F 36% 30.06 in 10.0 mi West 13.8 mph 24.2 mph N/A   Clear
2:55 PM 60.8 °F - 32.0 °F 34% 30.06 in 10.0 mi West 19.6 mph 27.6 mph N/A   Scattered Clouds
3:15 PM 60.8 °F - 32.0 °F 34% 30.05 in 10.0 mi West 19.6 mph 25.3 mph N/A   Clear
3:35 PM 60.8 °F - 32.0 °F 34% 30.05 in 10.0 mi West 15.0 mph 28.8 mph N/A   Clear
3:55 PM 60.8 °F - 32.0 °F 34% 30.05 in 10.0 mi West 19.6 mph 24.2 mph N/A   Scattered Clouds
4:15 PM 60.8 °F - 32.0 °F 34% 30.05 in 10.0 mi West 20.7 mph 25.3 mph N/A   Scattered Clouds
4:35 PM 60.8 °F - 32.0 °F 34% 30.06 in 10.0 mi WNW 15.0 mph 25.3 mph N/A   Scattered Clouds
4:55 PM 59.0 °F - 32.0 °F 36% 30.05 in 10.0 mi WNW 17.3 mph 25.3 mph N/A   Clear
5:15 PM 59.0 °F - 32.0 °F 36% 30.05 in 10.0 mi West 12.7 mph 21.9 mph N/A   Clear
5:35 PM 59.0 °F - 32.0 °F 36% 30.05 in 10.0 mi West 12.7 mph 17.3 mph N/A   Clear
5:55 PM 59.0 °F - 32.0 °F 36% 30.05 in 10.0 mi West 10.4 mph - N/A   Clear
6:15 PM 55.4 °F - 32.0 °F 41% 30.06 in 10.0 mi West 8.1 mph - N/A   Clear
6:35 PM 53.6 °F - 32.0 °F 44% 30.06 in 10.0 mi West 6.9 mph - N/A   Clear
6:55 PM 53.6 °F - 32.0 °F 44% 30.06 in 10.0 mi West 4.6 mph - N/A   Clear
7:15 PM 53.6 °F - 32.0 °F 44% 30.06 in 10.0 mi WSW 4.6 mph - N/A   Clear
7:35 PM 51.8 °F - 33.8 °F 50% 30.06 in 10.0 mi SW 4.6 mph - N/A   Clear
7:55 PM 50.0 °F - 33.8 °F 54% 30.06 in 10.0 mi SW 4.6 mph - N/A   Clear
8:15 PM 50.0 °F - 33.8 °F 54% 30.07 in 10.0 mi SSW 5.8 mph - N/A   Clear
8:35 PM 50.0 °F - 33.8 °F 54% 30.07 in 10.0 mi SSW 4.6 mph - N/A   Clear
8:55 PM 48.2 °F - 33.8 °F 58% 30.07 in 10.0 mi SSW 4.6 mph - N/A   Clear
9:15 PM 46.4 °F 44.3 °F 33.8 °F 62% 30.06 in 10.0 mi South 4.6 mph - N/A   Clear
9:35 PM 46.4 °F 44.3 °F 33.8 °F 62% 30.06 in 10.0 mi South 4.6 mph - N/A   Clear
9:55 PM 46.4 °F 44.3 °F 33.8 °F 62% 30.06 in 10.0 mi South 4.6 mph - N/A   Clear
10:15 PM 44.6 °F 42.2 °F 33.8 °F 66% 30.06 in 10.0 mi South 4.6 mph - N/A   Clear
10:35 PM 44.6 °F 41.4 °F 33.8 °F 66% 30.06 in 10.0 mi South 5.8 mph - N/A   Clear
10:55 PM 44.6 °F 41.4 °F 33.8 °F 66% 30.06 in 10.0 mi South 5.8 mph - N/A   Clear
11:15 PM 44.6 °F 41.4 °F 33.8 °F 66% 30.05 in 10.0 mi South 5.8 mph - N/A   Clear
11:35 PM 44.6 °F 42.2 °F 33.8 °F 66% 30.05 in 10.0 mi South 4.6 mph - N/A   Clear
11:55 PM 44.6 °F 42.2 °F 32.0 °F 61% 30.04 in 10.0 mi SSE 4.6 mph - N/A   Clear